createdAt,value
2023-05-14T00:01:25.588Z,12.91
2023-05-14T00:03:52.964Z,12.93
2023-05-14T00:06:20.573Z,12.81
2023-05-14T00:08:49.169Z,12.82
2023-05-14T00:11:16.445Z,12.91
2023-05-14T00:13:43.688Z,13.03
2023-05-14T00:16:11.527Z,12.89
2023-05-14T00:18:38.817Z,12.95
2023-05-14T00:21:06.064Z,13.20
2023-05-14T00:23:33.268Z,13.12
2023-05-14T00:26:01.846Z,12.82
2023-05-14T00:28:29.055Z,12.77
2023-05-14T00:30:57.373Z,12.79
2023-05-14T00:33:24.570Z,13.02
2023-05-14T00:35:51.918Z,12.84
2023-05-14T00:38:19.666Z,12.99
2023-05-14T00:40:51.437Z,12.67
2023-05-14T00:43:21.145Z,12.87
2023-05-14T00:45:50.025Z,12.84
2023-05-14T00:48:17.647Z,12.79
2023-05-14T00:50:44.845Z,12.88
2023-05-14T00:53:12.540Z,12.54
2023-05-14T00:55:41.669Z,12.60
2023-05-14T00:58:11.101Z,12.57
2023-05-14T01:00:40.665Z,12.55
2023-05-14T01:03:09.171Z,12.58
2023-05-14T01:05:43.994Z,12.52
2023-05-14T01:08:21.691Z,12.47
2023-05-14T01:10:53.041Z,12.36
2023-05-14T01:13:27.250Z,12.30
2023-05-14T01:15:58.693Z,12.41
2023-05-14T01:18:28.362Z,12.60
2023-05-14T01:20:55.670Z,12.41
2023-05-14T01:23:24.593Z,12.31
2023-05-14T01:25:51.883Z,12.33
2023-05-14T01:28:22.487Z,12.55
2023-05-14T01:30:54.109Z,12.51
2023-05-14T01:33:24.895Z,12.52
2023-05-14T01:35:53.795Z,12.51
2023-05-14T01:38:22.227Z,12.52
2023-05-14T01:40:51.202Z,12.55
2023-05-14T01:43:19.290Z,12.61
2023-05-14T01:45:46.898Z,12.60
2023-05-14T01:48:14.174Z,12.65
2023-05-14T01:50:41.748Z,12.74
2023-05-14T01:53:09.075Z,12.65
2023-05-14T01:55:36.349Z,12.74
2023-05-14T01:58:05.007Z,12.71
2023-05-14T02:00:32.303Z,12.72
2023-05-14T02:02:59.593Z,12.75
2023-05-14T02:05:27.010Z,12.74
2023-05-14T02:07:54.266Z,12.71
2023-05-14T02:10:21.600Z,12.87
2023-05-14T02:12:48.981Z,12.72
2023-05-14T02:15:18.085Z,12.68
2023-05-14T02:17:45.770Z,12.69
2023-05-14T02:20:13.770Z,12.81
2023-05-14T02:22:45.706Z,12.72
2023-05-14T02:25:13.150Z,12.69
2023-05-14T02:27:40.578Z,12.64
2023-05-14T02:30:09.034Z,12.69
2023-05-14T02:32:38.376Z,12.67
2023-05-14T02:35:06.795Z,12.82
2023-05-14T02:37:34.924Z,12.77
2023-05-14T02:40:02.100Z,12.62
2023-05-14T02:42:29.250Z,12.78
2023-05-14T02:44:56.468Z,12.78
2023-05-14T02:47:23.678Z,12.72
2023-05-14T02:49:52.636Z,12.77
2023-05-14T02:52:19.825Z,12.84
2023-05-14T02:54:47.067Z,12.95
2023-05-14T02:57:14.314Z,12.88
2023-05-14T02:59:41.665Z,12.75
2023-05-14T03:02:09.196Z,12.79
2023-05-14T03:04:36.888Z,12.84
2023-05-14T03:07:05.898Z,12.91
2023-05-14T03:09:33.470Z,12.82
2023-05-14T03:12:01.409Z,12.95
2023-05-14T03:14:28.684Z,12.77
2023-05-14T03:16:56.012Z,12.85
2023-05-14T03:19:23.180Z,12.91
2023-05-14T03:21:50.353Z,12.77
2023-05-14T03:24:18.940Z,12.65
2023-05-14T03:26:46.195Z,12.60
2023-05-14T03:29:13.549Z,12.64
2023-05-14T03:31:40.832Z,12.60
2023-05-14T03:34:08.033Z,12.89
2023-05-14T03:36:36.511Z,12.77
2023-05-14T03:39:03.867Z,12.78
2023-05-14T03:41:32.550Z,12.74
2023-05-14T03:43:59.833Z,12.78
2023-05-14T03:46:27.135Z,12.50
2023-05-14T03:48:54.298Z,12.78
2023-05-14T03:51:21.624Z,12.62
2023-05-14T03:53:48.813Z,12.57
2023-05-14T03:56:16.129Z,12.62
2023-05-14T03:58:44.768Z,12.64
2023-05-14T04:01:11.919Z,12.69
2023-05-14T04:03:39.259Z,12.64
2023-05-14T04:06:06.883Z,12.47
2023-05-14T04:08:34.072Z,12.67
2023-05-14T04:11:01.324Z,12.51
2023-05-14T04:13:28.566Z,12.37
2023-05-14T04:15:57.179Z,12.41
2023-05-14T04:18:25.744Z,12.44
2023-05-14T04:20:52.977Z,12.41
2023-05-14T04:23:20.599Z,12.44
2023-05-14T04:25:47.786Z,12.42
2023-05-14T04:28:15.250Z,12.40
2023-05-14T04:30:42.459Z,12.52
2023-05-14T04:33:11.169Z,12.57
2023-05-14T04:35:38.775Z,12.51
2023-05-14T04:38:06.249Z,12.57
2023-05-14T04:40:33.398Z,12.41
2023-05-14T04:43:00.627Z,12.40
2023-05-14T04:45:27.850Z,12.44
2023-05-14T04:47:55.122Z,12.51
2023-05-14T04:50:24.064Z,12.58
2023-05-14T04:52:51.555Z,12.42
2023-05-14T04:55:18.763Z,12.31
2023-05-14T04:57:45.972Z,12.36
2023-05-14T05:00:13.960Z,12.44
2023-05-14T05:02:41.679Z,12.52
2023-05-14T05:05:09.977Z,12.52
2023-05-14T05:07:38.642Z,12.45
2023-05-14T05:10:07.192Z,12.41
2023-05-14T05:12:35.493Z,12.45
2023-05-14T05:15:02.713Z,12.48
2023-05-14T05:17:30.279Z,12.68
2023-05-14T05:19:57.474Z,12.68
2023-05-14T05:22:24.781Z,12.69
2023-05-14T05:24:53.582Z,12.67
2023-05-14T05:27:22.263Z,12.67
2023-05-14T05:29:49.420Z,12.68
2023-05-14T05:32:16.577Z,12.71
2023-05-14T05:34:43.831Z,12.69
2023-05-14T05:37:12.922Z,12.57
2023-05-14T05:39:40.213Z,12.55
2023-05-14T05:42:09.167Z,12.52
2023-05-14T05:44:36.461Z,12.54
2023-05-14T05:47:03.903Z,12.74
2023-05-14T05:49:31.099Z,12.74
2023-05-14T05:51:58.517Z,12.81
2023-05-14T05:54:25.871Z,12.51
2023-05-14T05:56:53.152Z,12.60
2023-05-14T05:59:22.059Z,12.64
2023-05-14T06:01:49.347Z,12.77
2023-05-14T06:04:16.682Z,12.52
2023-05-14T06:06:43.850Z,12.50
2023-05-14T06:09:11.151Z,12.67
2023-05-14T06:11:38.390Z,12.60
2023-05-14T06:14:05.704Z,12.57
2023-05-14T06:16:34.286Z,12.67
2023-05-14T06:19:02.143Z,12.60
2023-05-14T06:21:29.476Z,12.69
2023-05-14T06:23:56.692Z,12.74
2023-05-14T06:26:23.872Z,12.65
2023-05-14T06:28:51.137Z,12.64
2023-05-14T06:31:18.741Z,12.41
2023-05-14T06:33:47.465Z,12.64
2023-05-14T06:36:14.643Z,12.57
2023-05-14T06:38:41.903Z,12.55
2023-05-14T06:41:09.342Z,12.69
2023-05-14T06:43:36.740Z,12.52
2023-05-14T06:46:03.908Z,12.68
2023-05-14T06:48:31.663Z,12.72
2023-05-14T06:51:00.435Z,12.72
2023-05-14T06:53:27.721Z,12.71
2023-05-14T06:55:56.465Z,12.69
2023-05-14T06:58:23.803Z,12.60
2023-05-14T07:00:51.105Z,12.61
2023-05-14T07:03:18.438Z,12.82
2023-05-14T07:05:46.982Z,12.72
2023-05-14T07:08:15.697Z,12.75
2023-05-14T07:10:43.016Z,12.88
2023-05-14T07:13:10.527Z,12.95
2023-05-14T07:15:37.901Z,12.75
2023-05-14T07:18:05.287Z,12.69
2023-05-14T07:20:32.736Z,12.72
2023-05-14T07:23:00.107Z,12.89
2023-05-14T07:25:28.851Z,12.82
2023-05-14T07:27:56.226Z,12.79
2023-05-14T07:30:23.734Z,12.87
2023-05-14T07:32:51.423Z,12.72
2023-05-14T07:35:18.717Z,12.84
2023-05-14T07:37:46.257Z,12.91
2023-05-14T07:40:13.839Z,12.96
2023-05-14T07:42:42.471Z,12.95
2023-05-14T07:45:10.799Z,12.79
2023-05-14T07:47:39.053Z,12.45
2023-05-14T07:50:07.709Z,12.54
2023-05-14T07:52:34.895Z,12.82
2023-05-14T07:55:03.376Z,12.89
2023-05-14T07:57:31.036Z,12.87
2023-05-14T07:59:59.750Z,12.67
2023-05-14T08:02:27.371Z,12.81
2023-05-14T08:04:54.632Z,12.91
2023-05-14T08:07:22.143Z,12.96
2023-05-14T08:09:49.481Z,13.02
2023-05-14T08:12:16.747Z,12.93
2023-05-14T08:14:44.007Z,12.65
2023-05-14T08:17:12.766Z,12.82
2023-05-14T08:19:40.309Z,12.82
2023-05-14T08:22:07.583Z,12.72
2023-05-14T08:24:34.904Z,12.60
2023-05-14T08:27:02.464Z,12.74
2023-05-14T08:29:29.837Z,12.84
2023-05-14T08:31:58.053Z,12.82
2023-05-14T08:34:28.012Z,12.57
2023-05-14T08:36:55.455Z,12.78
2023-05-14T08:39:22.945Z,12.64
2023-05-14T08:41:50.403Z,12.60
2023-05-14T08:44:20.472Z,12.91
2023-05-14T08:46:49.819Z,12.84
2023-05-14T08:49:29.199Z,12.77
2023-05-14T08:51:58.188Z,12.93
2023-05-14T08:54:27.408Z,12.96
2023-05-14T08:56:54.825Z,12.95
2023-05-14T08:59:22.317Z,12.88
2023-05-14T09:01:53.125Z,12.95
2023-05-14T09:04:22.468Z,12.98
2023-05-14T09:06:51.485Z,13.05
2023-05-14T09:09:24.081Z,13.17
2023-05-14T09:11:52.689Z,13.40
2023-05-14T09:14:21.117Z,13.61
2023-05-14T09:16:50.287Z,13.70
2023-05-14T09:19:21.203Z,13.23
2023-05-14T09:21:50.264Z,13.65
2023-05-14T09:24:23.353Z,13.47
2023-05-14T09:26:51.931Z,13.16
2023-05-14T09:29:19.465Z,13.27
2023-05-14T09:31:47.016Z,12.82
2023-05-14T09:34:24.162Z,13.27
2023-05-14T09:36:54.504Z,12.98
2023-05-14T09:39:23.955Z,13.32
2023-05-14T09:41:52.072Z,13.17
2023-05-14T09:44:19.823Z,13.23
2023-05-14T09:46:47.644Z,13.08
2023-05-14T09:49:15.365Z,13.15
2023-05-14T09:51:42.751Z,12.95
2023-05-14T09:54:10.429Z,12.95
2023-05-14T09:56:39.731Z,12.96
2023-05-14T09:59:07.041Z,12.69
2023-05-14T10:01:35.267Z,12.89
2023-05-14T10:04:04.781Z,12.62
2023-05-14T10:06:36.503Z,12.75
2023-05-14T10:09:05.943Z,12.87
2023-05-14T10:11:36.971Z,12.61
2023-05-14T10:14:08.723Z,12.75
2023-05-14T10:16:43.089Z,12.79
2023-05-14T10:19:12.048Z,12.79
2023-05-14T10:21:41.761Z,12.71
2023-05-14T10:24:10.829Z,12.71
2023-05-14T10:26:40.920Z,12.64
2023-05-14T10:29:10.430Z,12.58
2023-05-14T10:31:49.342Z,12.64
2023-05-14T10:34:33.749Z,12.74
2023-05-14T10:37:02.078Z,12.79
2023-05-14T10:39:46.906Z,12.68
2023-05-14T10:42:17.150Z,12.77
2023-05-14T10:44:55.076Z,12.79
2023-05-14T10:47:22.767Z,12.79
2023-05-14T10:49:50.352Z,12.81
2023-05-14T10:52:19.973Z,12.79
2023-05-14T10:54:50.874Z,12.75
2023-05-14T10:57:19.131Z,12.71
2023-05-14T10:59:47.744Z,12.62
2023-05-14T11:02:24.315Z,12.65
2023-05-14T11:05:00.014Z,12.52
2023-05-14T11:07:29.578Z,12.75
2023-05-14T11:10:04.386Z,12.61
2023-05-14T11:12:32.328Z,12.64
2023-05-14T11:15:02.300Z,12.79
2023-05-14T11:17:31.757Z,12.71
2023-05-14T11:20:00.202Z,12.60
2023-05-14T11:22:27.788Z,12.65
2023-05-14T11:24:55.293Z,12.72
2023-05-14T11:27:24.321Z,12.68
2023-05-14T11:29:51.598Z,12.58
2023-05-14T11:32:20.545Z,12.72
2023-05-14T11:34:49.399Z,12.65
2023-05-14T11:37:17.252Z,12.62
2023-05-14T11:39:48.677Z,12.55
2023-05-14T11:42:17.598Z,12.68
2023-05-14T11:44:46.102Z,12.50
2023-05-14T11:47:13.600Z,12.62
2023-05-14T11:49:41.175Z,12.67
2023-05-14T11:52:11.776Z,12.51
2023-05-14T11:54:39.060Z,12.71
2023-05-14T11:57:10.477Z,12.77
2023-05-14T11:59:38.312Z,12.69
2023-05-14T12:02:08.468Z,12.58
2023-05-14T12:04:35.909Z,12.75
2023-05-14T12:07:12.045Z,12.64
2023-05-14T12:09:42.606Z,12.71
2023-05-14T12:12:12.582Z,12.88
2023-05-14T12:14:42.784Z,12.68
2023-05-14T12:17:15.269Z,12.96
2023-05-14T12:19:44.074Z,12.81
2023-05-14T12:22:15.980Z,12.93
2023-05-14T12:24:44.111Z,12.92
2023-05-14T12:27:12.001Z,12.92
2023-05-14T12:29:39.642Z,13.00
2023-05-14T12:32:10.494Z,13.03
2023-05-14T12:34:38.730Z,13.16
2023-05-14T12:37:06.698Z,13.19
2023-05-14T12:39:35.871Z,12.93
2023-05-14T12:42:03.116Z,12.98
2023-05-14T12:44:30.552Z,13.10
2023-05-14T12:46:58.125Z,13.02
2023-05-14T12:49:25.484Z,12.89
2023-05-14T12:52:00.699Z,12.98
2023-05-14T12:54:43.579Z,12.85
2023-05-14T12:57:10.801Z,12.98
2023-05-14T12:59:37.983Z,12.75
2023-05-14T13:02:05.487Z,12.92
2023-05-14T13:04:32.652Z,12.92
2023-05-14T13:07:00.331Z,12.78
2023-05-14T13:09:28.106Z,13.00
2023-05-14T13:11:56.799Z,13.09
2023-05-14T13:14:24.010Z,13.15
2023-05-14T13:16:51.319Z,13.15
2023-05-14T13:19:18.885Z,13.26
2023-05-14T13:21:46.060Z,13.37
2023-05-14T13:24:13.249Z,13.17
2023-05-14T13:26:40.454Z,13.39
2023-05-14T13:29:09.101Z,13.27
2023-05-14T13:31:36.511Z,13.37
2023-05-14T13:34:04.381Z,13.42
2023-05-14T13:36:32.346Z,13.37
2023-05-14T13:38:59.739Z,13.35
2023-05-14T13:41:26.936Z,13.40
2023-05-14T13:43:54.247Z,13.48
2023-05-14T13:46:23.116Z,13.27
2023-05-14T13:48:50.352Z,13.61
2023-05-14T13:51:17.510Z,13.77
2023-05-14T13:53:45.283Z,13.55
2023-05-14T13:56:12.456Z,13.70
2023-05-14T13:58:40.119Z,13.84
2023-05-14T14:01:07.899Z,13.65
2023-05-14T14:03:36.512Z,13.63
2023-05-14T14:06:03.892Z,13.73
2023-05-14T14:08:31.326Z,13.89
2023-05-14T14:10:58.543Z,13.86
2023-05-14T14:13:26.076Z,13.89
2023-05-14T14:15:53.490Z,13.67
2023-05-14T14:18:21.136Z,13.67
2023-05-14T14:20:52.507Z,13.86
2023-05-14T14:23:19.797Z,13.77
2023-05-14T14:25:47.278Z,13.54
2023-05-14T14:28:14.700Z,13.44
2023-05-14T14:30:42.731Z,13.50
2023-05-14T14:33:10.135Z,13.55
2023-05-14T14:35:37.851Z,13.37
2023-05-14T14:38:06.486Z,13.46
2023-05-14T14:40:34.114Z,13.36
2023-05-14T14:43:02.138Z,13.36
2023-05-14T14:45:29.594Z,13.16
2023-05-14T14:48:25.137Z,13.23
2023-05-14T14:50:52.664Z,13.28
2023-05-14T14:53:22.025Z,13.40
2023-05-14T14:55:49.365Z,13.43
2023-05-14T14:58:16.763Z,13.44
2023-05-14T15:00:44.318Z,13.46
2023-05-14T15:03:12.132Z,13.39
2023-05-14T15:05:39.648Z,13.42
2023-05-14T15:08:06.906Z,13.42
2023-05-14T15:10:38.151Z,13.32
2023-05-14T15:13:06.895Z,13.36
2023-05-14T15:15:35.308Z,13.26
2023-05-14T15:18:02.803Z,13.23
2023-05-14T15:20:30.282Z,13.03
2023-05-14T15:22:57.664Z,12.96
2023-05-14T15:25:25.400Z,13.19
2023-05-14T15:27:54.572Z,13.33
2023-05-14T15:30:21.829Z,13.24
2023-05-14T15:32:49.518Z,13.22
2023-05-14T15:35:17.156Z,13.19
2023-05-14T15:37:44.906Z,13.16
2023-05-14T15:40:12.973Z,13.19
2023-05-14T15:42:42.248Z,13.40
2023-05-14T15:45:12.640Z,13.17
2023-05-14T15:47:40.441Z,13.13
2023-05-14T15:50:08.749Z,13.09
2023-05-14T15:52:39.500Z,13.22
2023-05-14T15:55:07.561Z,13.39
2023-05-14T15:57:35.238Z,13.24
2023-05-14T16:00:08.581Z,13.28
2023-05-14T16:02:37.713Z,13.33
2023-05-14T16:05:05.792Z,13.17
2023-05-14T16:07:33.606Z,13.13
2023-05-14T16:10:00.838Z,13.13
2023-05-14T16:12:28.241Z,13.12
2023-05-14T16:14:57.239Z,13.22
2023-05-14T16:17:24.715Z,12.91
2023-05-14T16:19:55.941Z,12.98
2023-05-14T16:22:23.712Z,13.03
2023-05-14T16:24:51.055Z,13.06
2023-05-14T16:27:21.242Z,13.17
2023-05-14T16:29:48.542Z,13.09
2023-05-14T16:32:15.983Z,12.99
2023-05-14T16:34:49.933Z,13.09
2023-05-14T16:37:21.964Z,13.02
2023-05-14T16:39:49.165Z,13.09
2023-05-14T16:42:16.376Z,13.09
2023-05-14T16:44:44.003Z,13.30
2023-05-14T16:47:11.264Z,13.24
2023-05-14T16:49:38.675Z,12.98
2023-05-14T16:52:06.927Z,13.05
2023-05-14T16:54:35.606Z,13.10
2023-05-14T16:57:02.868Z,13.00
2023-05-14T16:59:30.116Z,13.05
2023-05-14T17:01:57.616Z,13.08
2023-05-14T17:04:26.786Z,13.03
2023-05-14T17:06:54.640Z,13.00
2023-05-14T17:09:22.258Z,12.99
2023-05-14T17:11:51.389Z,12.84
2023-05-14T17:14:18.618Z,12.96
2023-05-14T17:16:45.911Z,13.08
2023-05-14T17:19:13.333Z,13.00
2023-05-14T17:21:40.995Z,12.93
2023-05-14T17:24:08.507Z,13.02
2023-05-14T17:26:35.764Z,13.23
2023-05-14T17:29:04.697Z,12.95
2023-05-14T17:31:32.065Z,13.13
2023-05-14T17:33:59.368Z,13.15
2023-05-14T17:36:28.721Z,12.93
2023-05-14T17:38:55.964Z,12.99
2023-05-14T17:41:23.228Z,13.05
2023-05-14T17:43:52.556Z,12.87
2023-05-14T17:46:21.473Z,12.65
2023-05-14T17:48:48.939Z,12.68
2023-05-14T17:51:16.443Z,12.71
2023-05-14T17:53:43.642Z,12.81
2023-05-14T17:56:11.128Z,12.71
2023-05-14T17:58:38.503Z,12.62
2023-05-14T18:01:06.438Z,12.68
2023-05-14T18:03:35.606Z,12.84
2023-05-14T18:06:02.911Z,12.78
2023-05-14T18:08:30.416Z,12.74
2023-05-14T18:11:00.152Z,12.93
2023-05-14T18:13:27.573Z,13.02
2023-05-14T18:15:56.677Z,12.78
2023-05-14T18:18:24.216Z,12.65
2023-05-14T18:20:53.795Z,12.67
2023-05-14T18:23:21.201Z,12.71
2023-05-14T18:25:48.596Z,12.79
2023-05-14T18:28:15.948Z,12.69
2023-05-14T18:30:43.865Z,12.71
2023-05-14T18:33:11.816Z,12.78
2023-05-14T18:35:39.738Z,12.72
2023-05-14T18:38:08.360Z,12.91
2023-05-14T18:40:35.594Z,12.68
2023-05-14T18:43:03.253Z,12.61
2023-05-14T18:45:30.552Z,12.65
2023-05-14T18:47:57.912Z,12.65
2023-05-14T18:50:25.657Z,12.68
2023-05-14T18:52:53.106Z,12.58
2023-05-14T18:55:21.975Z,12.54
2023-05-14T18:57:49.794Z,12.60
2023-05-14T19:00:17.654Z,12.64
2023-05-14T19:02:44.863Z,12.62
2023-05-14T19:05:12.293Z,12.44
2023-05-14T19:07:41.002Z,12.52
2023-05-14T19:10:09.707Z,12.52
2023-05-14T19:12:38.490Z,12.58
2023-05-14T19:15:07.460Z,12.54
2023-05-14T19:17:37.564Z,12.50
2023-05-14T19:20:06.481Z,12.50
2023-05-14T19:22:34.033Z,12.44
2023-05-14T19:25:01.532Z,12.47
2023-05-14T19:27:29.094Z,12.51
2023-05-14T19:29:57.853Z,12.62
2023-05-14T19:32:25.058Z,12.85
2023-05-14T19:34:52.368Z,12.77
2023-05-14T19:37:19.652Z,12.82
2023-05-14T19:39:46.812Z,13.05
2023-05-14T19:42:14.008Z,13.06
2023-05-14T19:44:41.435Z,12.84
2023-05-14T19:47:10.550Z,12.61
2023-05-14T19:49:38.012Z,12.62
2023-05-14T19:52:05.891Z,12.74
2023-05-14T19:54:33.337Z,12.85
2023-05-14T19:57:00.838Z,12.79
2023-05-14T19:59:29.964Z,12.74
2023-05-14T20:01:57.596Z,12.52
2023-05-14T20:04:26.355Z,12.50
2023-05-14T20:06:53.777Z,12.74
2023-05-14T20:09:21.373Z,12.68
2023-05-14T20:11:48.817Z,12.69
2023-05-14T20:14:16.530Z,12.82
2023-05-14T20:16:43.855Z,12.88
2023-05-14T20:19:11.230Z,12.85
2023-05-14T20:21:40.133Z,12.78
2023-05-14T20:24:07.681Z,12.85
2023-05-14T20:26:34.976Z,12.87
2023-05-14T20:29:02.405Z,12.91
2023-05-14T20:31:29.821Z,12.82
2023-05-14T20:33:57.075Z,12.89
2023-05-14T20:36:24.604Z,12.98
2023-05-14T20:38:53.415Z,12.84
2023-05-14T20:41:21.168Z,12.75
2023-05-14T20:43:48.345Z,12.79
2023-05-14T20:46:15.636Z,12.78
2023-05-14T20:48:42.925Z,12.82
2023-05-14T20:51:10.197Z,12.78
2023-05-14T20:53:39.254Z,12.79
2023-05-14T20:56:07.957Z,12.69
2023-05-14T20:58:35.708Z,12.45
2023-05-14T21:01:03.966Z,12.50
2023-05-14T21:03:31.529Z,12.68
2023-05-14T21:06:00.689Z,12.65
2023-05-14T21:08:27.985Z,12.72
2023-05-14T21:10:55.169Z,12.64
2023-05-14T21:13:23.928Z,12.67
2023-05-14T21:15:51.354Z,12.60
2023-05-14T21:18:18.674Z,12.54
2023-05-14T21:20:45.887Z,12.50
2023-05-14T21:23:13.100Z,12.69
2023-05-14T21:25:40.353Z,12.74
2023-05-14T21:28:08.177Z,12.64
2023-05-14T21:30:36.726Z,12.61
2023-05-14T21:33:04.088Z,12.44
2023-05-14T21:35:31.484Z,12.41
2023-05-14T21:37:58.802Z,12.41
2023-05-14T21:40:26.216Z,12.37
2023-05-14T21:42:53.437Z,12.65
2023-05-14T21:45:23.404Z,12.81
2023-05-14T21:47:52.487Z,12.67
2023-05-14T21:50:19.798Z,12.45
2023-05-14T21:52:47.481Z,12.38
2023-05-14T21:55:14.848Z,12.36
2023-05-14T21:57:42.209Z,12.57
2023-05-14T22:00:13.235Z,12.55
2023-05-14T22:02:41.023Z,12.38
2023-05-14T22:05:10.101Z,12.40
2023-05-14T22:07:37.341Z,12.57
2023-05-14T22:10:05.109Z,12.48
2023-05-14T22:12:32.340Z,12.42
2023-05-14T22:14:59.660Z,12.41
2023-05-14T22:17:28.079Z,12.37
2023-05-14T22:19:55.474Z,12.48
2023-05-14T22:22:24.093Z,12.61
2023-05-14T22:24:51.240Z,12.48
2023-05-14T22:27:18.550Z,12.45
2023-05-14T22:29:45.772Z,12.38
2023-05-14T22:32:12.922Z,12.34
2023-05-14T22:34:40.208Z,12.31
2023-05-14T22:37:08.196Z,12.41
2023-05-14T22:39:36.911Z,12.47
2023-05-14T22:42:04.514Z,12.45
2023-05-14T22:44:31.714Z,12.37
2023-05-14T22:46:59.373Z,12.47
2023-05-14T22:49:26.613Z,12.29
2023-05-14T22:51:54.551Z,12.17
2023-05-14T22:54:21.843Z,12.44
2023-05-14T22:56:51.809Z,12.60
2023-05-14T22:59:19.799Z,12.45
2023-05-14T23:01:47.879Z,12.42
2023-05-14T23:04:15.019Z,12.40
2023-05-14T23:06:42.303Z,12.42
2023-05-14T23:09:09.587Z,12.62
2023-05-14T23:11:36.770Z,12.64
2023-05-14T23:14:05.418Z,12.50
2023-05-14T23:16:32.732Z,12.27
2023-05-14T23:19:00.065Z,12.36
2023-05-14T23:21:27.493Z,12.36
2023-05-14T23:23:54.728Z,12.37
2023-05-14T23:26:21.928Z,12.23
2023-05-14T23:28:49.115Z,12.22
2023-05-14T23:31:17.844Z,12.22
2023-05-14T23:33:45.314Z,12.44
2023-05-14T23:36:12.613Z,12.51
2023-05-14T23:38:40.869Z,12.31
2023-05-14T23:41:07.987Z,12.48
2023-05-14T23:43:35.228Z,12.40
2023-05-14T23:46:02.639Z,12.69
2023-05-14T23:48:31.678Z,12.74
2023-05-14T23:50:58.904Z,12.38
2023-05-14T23:53:26.302Z,12.19
2023-05-14T23:55:53.511Z,12.19
2023-05-14T23:58:20.884Z,12.13
